sensor_id;sensor_type;location;lat;lon;timestamp;pressure;altitude;pressure_sealevel;temperature;humidity
13581;BME280;6861;46.170;7.222;2023-05-14T00:02:15;95826.72;;;15.27;58.86
13581;BME280;6861;46.170;7.222;2023-05-14T00:04:45;95823.03;;;15.28;58.66
13581;BME280;6861;46.170;7.222;2023-05-14T00:07:13;95823.22;;;15.32;58.93
13581;BME280;6861;46.170;7.222;2023-05-14T00:09:42;95822.63;;;15.35;58.81
13581;BME280;6861;46.170;7.222;2023-05-14T00:12:11;95823.56;;;15.39;58.50
13581;BME280;6861;46.170;7.222;2023-05-14T00:14:40;95824.53;;;15.43;58.61
13581;BME280;6861;46.170;7.222;2023-05-14T00:17:09;95822.69;;;15.44;58.91
13581;BME280;6861;46.170;7.222;2023-05-14T00:19:37;95827.06;;;15.48;58.55
13581;BME280;6861;46.170;7.222;2023-05-14T00:22:09;95816.22;;;15.50;58.77
13581;BME280;6861;46.170;7.222;2023-05-14T00:24:38;95819.53;;;15.55;58.77
13581;BME280;6861;46.170;7.222;2023-05-14T00:27:07;95811.81;;;15.59;58.27
13581;BME280;6861;46.170;7.222;2023-05-14T00:29:36;95814.91;;;15.61;58.75
13581;BME280;6861;46.170;7.222;2023-05-14T00:32:05;95805.13;;;15.61;58.73
13581;BME280;6861;46.170;7.222;2023-05-14T00:34:34;95802.03;;;15.59;58.63
13581;BME280;6861;46.170;7.222;2023-05-14T00:37:02;95801.41;;;15.62;58.36
13581;BME280;6861;46.170;7.222;2023-05-14T00:39:32;95806.69;;;15.62;58.48
13581;BME280;6861;46.170;7.222;2023-05-14T00:42:24;95804.06;;;15.62;58.44
13581;BME280;6861;46.170;7.222;2023-05-14T00:44:54;95805.13;;;15.61;58.27
13581;BME280;6861;46.170;7.222;2023-05-14T00:47:22;95804.69;;;15.59;58.48
13581;BME280;6861;46.170;7.222;2023-05-14T00:49:51;95803.69;;;15.55;58.88
13581;BME280;6861;46.170;7.222;2023-05-14T00:52:20;95799.91;;;15.48;58.81
13581;BME280;6861;46.170;7.222;2023-05-14T00:54:50;95798.00;;;15.39;58.99
13581;BME280;6861;46.170;7.222;2023-05-14T00:57:19;95796.38;;;15.30;59.01
13581;BME280;6861;46.170;7.222;2023-05-14T00:59:47;95798.63;;;15.23;58.99
13581;BME280;6861;46.170;7.222;2023-05-14T01:02:16;95796.59;;;15.20;59.13
13581;BME280;6861;46.170;7.222;2023-05-14T01:04:45;95801.28;;;15.23;59.22
13581;BME280;6861;46.170;7.222;2023-05-14T01:07:20;95797.56;;;15.24;59.36
13581;BME280;6861;46.170;7.222;2023-05-14T01:09:55;95788.88;;;15.23;59.14
13581;BME280;6861;46.170;7.222;2023-05-14T01:12:33;95784.78;;;15.17;58.93
13581;BME280;6861;46.170;7.222;2023-05-14T01:15:08;95787.81;;;15.11;59.66
13581;BME280;6861;46.170;7.222;2023-05-14T01:17:41;95787.47;;;15.03;59.68
13581;BME280;6861;46.170;7.222;2023-05-14T01:20:10;95790.69;;;15.00;59.44
13581;BME280;6861;46.170;7.222;2023-05-14T01:22:41;95789.72;;;14.96;59.45
13581;BME280;6861;46.170;7.222;2023-05-14T01:25:09;95784.06;;;14.89;59.59
13581;BME280;6861;46.170;7.222;2023-05-14T01:27:42;95781.72;;;14.88;59.40
13581;BME280;6861;46.170;7.222;2023-05-14T01:30:20;95779.28;;;14.91;59.59
13581;BME280;6861;46.170;7.222;2023-05-14T01:32:53;95782.28;;;14.98;59.31
13581;BME280;6861;46.170;7.222;2023-05-14T01:35:25;95783.25;;;15.02;59.56
13581;BME280;6861;46.170;7.222;2023-05-14T01:37:57;95779.72;;;15.07;59.53
13581;BME280;6861;46.170;7.222;2023-05-14T01:40:26;95785.50;;;15.09;59.11
13581;BME280;6861;46.170;7.222;2023-05-14T01:42:55;95780.69;;;15.11;59.44
13581;BME280;6861;46.170;7.222;2023-05-14T01:45:24;95775.44;;;15.11;59.04
13581;BME280;6861;46.170;7.222;2023-05-14T01:47:52;95770.38;;;15.01;59.51
13581;BME280;6861;46.170;7.222;2023-05-14T01:50:20;95773.91;;;14.96;59.79
13581;BME280;6861;46.170;7.222;2023-05-14T01:52:49;95774.69;;;14.97;59.49
13581;BME280;6861;46.170;7.222;2023-05-14T01:55:20;95767.06;;;14.95;59.83
13581;BME280;6861;46.170;7.222;2023-05-14T01:57:49;95767.38;;;14.94;59.92
13581;BME280;6861;46.170;7.222;2023-05-14T02:00:18;95768.63;;;14.96;59.86
13581;BME280;6861;46.170;7.222;2023-05-14T02:02:46;95768.03;;;14.99;60.39
13581;BME280;6861;46.170;7.222;2023-05-14T02:05:14;95765.88;;;15.01;59.89
13581;BME280;6861;46.170;7.222;2023-05-14T02:07:42;95774.28;;;15.03;59.76
13581;BME280;6861;46.170;7.222;2023-05-14T02:10:11;95769.59;;;15.00;59.69
13581;BME280;6861;46.170;7.222;2023-05-14T02:12:40;95761.81;;;14.95;59.71
13581;BME280;6861;46.170;7.222;2023-05-14T02:15:09;95765.63;;;14.89;59.63
13581;BME280;6861;46.170;7.222;2023-05-14T02:17:37;95771.78;;;14.85;59.76
13581;BME280;6861;46.170;7.222;2023-05-14T02:20:06;95759.97;;;14.82;59.76
13581;BME280;6861;46.170;7.222;2023-05-14T02:22:36;95769.44;;;14.83;59.83
13581;BME280;6861;46.170;7.222;2023-05-14T02:25:08;95771.78;;;14.85;59.83
13581;BME280;6861;46.170;7.222;2023-05-14T02:27:37;95763.00;;;14.89;59.94
13581;BME280;6861;46.170;7.222;2023-05-14T02:30:07;95772.94;;;14.92;59.71
13581;BME280;6861;46.170;7.222;2023-05-14T02:32:36;95767.06;;;14.95;59.76
13581;BME280;6861;46.170;7.222;2023-05-14T02:35:05;95765.69;;;14.98;59.45
13581;BME280;6861;46.170;7.222;2023-05-14T02:37:34;95762.19;;;15.02;59.49
13581;BME280;6861;46.170;7.222;2023-05-14T02:40:02;95760.81;;;15.05;59.35
13581;BME280;6861;46.170;7.222;2023-05-14T02:42:31;95763.75;;;15.03;59.30
13581;BME280;6861;46.170;7.222;2023-05-14T02:44:59;95764.34;;;15.00;59.16
13581;BME280;6861;46.170;7.222;2023-05-14T02:47:28;95767.06;;;14.95;58.85
13581;BME280;6861;46.170;7.222;2023-05-14T02:49:56;95758.91;;;14.83;59.38
13581;BME280;6861;46.170;7.222;2023-05-14T02:52:25;95762.44;;;14.79;59.31
13581;BME280;6861;46.170;7.222;2023-05-14T02:54:53;95761.59;;;14.69;59.31
13581;BME280;6861;46.170;7.222;2023-05-14T02:57:21;95759.84;;;14.65;58.91
13581;BME280;6861;46.170;7.222;2023-05-14T02:59:49;95762.28;;;14.61;59.46
13581;BME280;6861;46.170;7.222;2023-05-14T03:02:18;95760.53;;;14.57;59.36
13581;BME280;6861;46.170;7.222;2023-05-14T03:04:48;95758.97;;;14.56;59.58
13581;BME280;6861;46.170;7.222;2023-05-14T03:07:16;95756.25;;;14.61;59.35
13581;BME280;6861;46.170;7.222;2023-05-14T03:09:44;95757.50;;;14.63;59.57
13581;BME280;6861;46.170;7.222;2023-05-14T03:12:12;95747.75;;;14.64;59.14
13581;BME280;6861;46.170;7.222;2023-05-14T03:14:40;95751.94;;;14.65;58.75
13581;BME280;6861;46.170;7.222;2023-05-14T03:17:08;95758.38;;;14.59;59.46
13581;BME280;6861;46.170;7.222;2023-05-14T03:19:37;95746.88;;;14.55;59.12
13581;BME280;6861;46.170;7.222;2023-05-14T03:22:07;95743.19;;;14.56;59.15
13581;BME280;6861;46.170;7.222;2023-05-14T03:24:38;95742.88;;;14.57;59.40
13581;BME280;6861;46.170;7.222;2023-05-14T03:27:06;95747.84;;;14.59;59.06
13581;BME280;6861;46.170;7.222;2023-05-14T03:29:34;95743.06;;;14.61;58.77
13581;BME280;6861;46.170;7.222;2023-05-14T03:32:03;95735.94;;;14.61;59.30
13581;BME280;6861;46.170;7.222;2023-05-14T03:34:31;95752.16;;;14.55;59.19
13581;BME280;6861;46.170;7.222;2023-05-14T03:37:00;95748.06;;;14.49;59.19
13581;BME280;6861;46.170;7.222;2023-05-14T03:39:29;95742.00;;;14.48;59.70
13581;BME280;6861;46.170;7.222;2023-05-14T03:41:58;95746.97;;;14.50;58.94
13581;BME280;6861;46.170;7.222;2023-05-14T03:44:26;95744.53;;;14.53;59.53
13581;BME280;6861;46.170;7.222;2023-05-14T03:46:54;95738.41;;;14.58;59.68
13581;BME280;6861;46.170;7.222;2023-05-14T03:49:22;95744.34;;;14.63;59.72
13581;BME280;6861;46.170;7.222;2023-05-14T03:51:51;95741.59;;;14.68;59.13
13581;BME280;6861;46.170;7.222;2023-05-14T03:54:19;95741.78;;;14.72;59.27
13581;BME280;6861;46.170;7.222;2023-05-14T03:56:48;95741.16;;;14.75;59.65
13581;BME280;6861;46.170;7.222;2023-05-14T03:59:16;95736.38;;;14.77;58.88
13581;BME280;6861;46.170;7.222;2023-05-14T04:01:44;95737.34;;;14.81;59.15
13581;BME280;6861;46.170;7.222;2023-05-14T04:04:13;95748.06;;;14.85;59.43
13581;BME280;6861;46.170;7.222;2023-05-14T04:06:41;95736.47;;;14.86;59.26
13581;BME280;6861;46.170;7.222;2023-05-14T04:09:09;95738.78;;;14.87;59.29
13581;BME280;6861;46.170;7.222;2023-05-14T04:11:37;95731.69;;;14.88;59.27
13581;BME280;6861;46.170;7.222;2023-05-14T04:14:07;95737.72;;;14.88;59.44
13581;BME280;6861;46.170;7.222;2023-05-14T04:16:35;95729.53;;;14.90;59.85
13581;BME280;6861;46.170;7.222;2023-05-14T04:19:03;95728.16;;;14.92;59.68
13581;BME280;6861;46.170;7.222;2023-05-14T04:21:31;95726.47;;;14.96;59.58
13581;BME280;6861;46.170;7.222;2023-05-14T04:23:59;95729.59;;;14.98;59.24
13581;BME280;6861;46.170;7.222;2023-05-14T04:26:28;95728.03;;;14.97;59.42
13581;BME280;6861;46.170;7.222;2023-05-14T04:28:56;95729.13;;;14.96;59.45
13581;BME280;6861;46.170;7.222;2023-05-14T04:31:29;95733.13;;;14.94;59.79
13581;BME280;6861;46.170;7.222;2023-05-14T04:33:58;95739.66;;;14.96;60.06
13581;BME280;6861;46.170;7.222;2023-05-14T04:36:26;95745.41;;;14.98;59.53
13581;BME280;6861;46.170;7.222;2023-05-14T04:38:54;95744.03;;;15.01;59.73
13581;BME280;6861;46.170;7.222;2023-05-14T04:41:22;95744.50;;;15.03;59.73
13581;BME280;6861;46.170;7.222;2023-05-14T04:43:54;95742.47;;;15.00;60.20
13581;BME280;6861;46.170;7.222;2023-05-14T04:46:22;95754.38;;;14.97;59.68
13581;BME280;6861;46.170;7.222;2023-05-14T04:48:52;95748.16;;;14.93;59.93
13581;BME280;6861;46.170;7.222;2023-05-14T04:51:20;95747.66;;;14.91;59.91
13581;BME280;6861;46.170;7.222;2023-05-14T04:53:48;95744.25;;;14.91;59.78
13581;BME280;6861;46.170;7.222;2023-05-14T04:56:17;95743.97;;;14.92;59.98
13581;BME280;6861;46.170;7.222;2023-05-14T04:58:45;95746.28;;;14.94;60.04
13581;BME280;6861;46.170;7.222;2023-05-14T05:01:13;95755.47;;;14.96;59.92
13581;BME280;6861;46.170;7.222;2023-05-14T05:03:41;95745.69;;;14.97;60.24
13581;BME280;6861;46.170;7.222;2023-05-14T05:06:11;95754.38;;;14.97;59.90
13581;BME280;6861;46.170;7.222;2023-05-14T05:08:39;95749.91;;;14.98;59.72
13581;BME280;6861;46.170;7.222;2023-05-14T05:11:08;95744.31;;;14.99;60.22
13581;BME280;6861;46.170;7.222;2023-05-14T05:13:36;95744.91;;;14.96;59.77
13581;BME280;6861;46.170;7.222;2023-05-14T05:16:04;95747.25;;;14.98;59.85
13581;BME280;6861;46.170;7.222;2023-05-14T05:18:33;95739.06;;;14.99;59.72
13581;BME280;6861;46.170;7.222;2023-05-14T05:21:01;95738.75;;;15.01;59.77
13581;BME280;6861;46.170;7.222;2023-05-14T05:23:30;95742.66;;;15.03;60.10
13581;BME280;6861;46.170;7.222;2023-05-14T05:25:59;95736.78;;;15.06;59.81
13581;BME280;6861;46.170;7.222;2023-05-14T05:28:27;95753.38;;;15.07;59.70
13581;BME280;6861;46.170;7.222;2023-05-14T05:30:55;95746.75;;;15.09;59.89
13581;BME280;6861;46.170;7.222;2023-05-14T05:33:24;95749.25;;;15.15;59.80
13581;BME280;6861;46.170;7.222;2023-05-14T05:35:52;95755.97;;;15.21;59.82
13581;BME280;6861;46.170;7.222;2023-05-14T05:38:20;95743.75;;;15.25;59.88
13581;BME280;6861;46.170;7.222;2023-05-14T05:40:50;95747.06;;;15.30;59.65
13581;BME280;6861;46.170;7.222;2023-05-14T05:43:18;95747.72;;;15.36;59.78
13581;BME280;6861;46.170;7.222;2023-05-14T05:45:46;95747.59;;;15.41;59.39
13581;BME280;6861;46.170;7.222;2023-05-14T05:48:14;95759.41;;;15.44;59.11
13581;BME280;6861;46.170;7.222;2023-05-14T05:50:45;95760.06;;;15.49;59.19
13581;BME280;6861;46.170;7.222;2023-05-14T05:53:14;95756.81;;;15.52;59.04
13581;BME280;6861;46.170;7.222;2023-05-14T05:55:42;95757.31;;;15.54;58.71
13581;BME280;6861;46.170;7.222;2023-05-14T05:58:12;95750.59;;;15.48;58.96
13581;BME280;6861;46.170;7.222;2023-05-14T06:00:43;95742.16;;;15.37;58.85
13581;BME280;6861;46.170;7.222;2023-05-14T06:03:11;95748.63;;;15.31;58.90
13581;BME280;6861;46.170;7.222;2023-05-14T06:05:40;95734.16;;;15.29;59.07
13581;BME280;6861;46.170;7.222;2023-05-14T06:08:08;95738.84;;;15.32;59.18
13581;BME280;6861;46.170;7.222;2023-05-14T06:10:36;95749.75;;;15.39;59.11
13581;BME280;6861;46.170;7.222;2023-05-14T06:13:04;95739.56;;;15.46;59.15
13581;BME280;6861;46.170;7.222;2023-05-14T06:15:34;95738.84;;;15.54;59.11
13581;BME280;6861;46.170;7.222;2023-05-14T06:18:02;95731.28;;;15.61;59.11
13581;BME280;6861;46.170;7.222;2023-05-14T06:20:31;95734.28;;;15.68;59.02
13581;BME280;6861;46.170;7.222;2023-05-14T06:22:59;95739.41;;;15.73;59.14
13581;BME280;6861;46.170;7.222;2023-05-14T06:25:27;95739.28;;;15.79;58.94
13581;BME280;6861;46.170;7.222;2023-05-14T06:27:55;95732.03;;;15.84;58.93
13581;BME280;6861;46.170;7.222;2023-05-14T06:30:24;95733.47;;;15.90;59.00
13581;BME280;6861;46.170;7.222;2023-05-14T06:32:54;95732.09;;;16.01;59.05
13581;BME280;6861;46.170;7.222;2023-05-14T06:35:22;95735.59;;;16.19;58.49
13581;BME280;6861;46.170;7.222;2023-05-14T06:37:50;95728.81;;;16.35;58.06
13581;BME280;6861;46.170;7.222;2023-05-14T06:40:19;95729.16;;;16.60;58.07
13581;BME280;6861;46.170;7.222;2023-05-14T06:42:47;95737.47;;;16.93;57.22
13581;BME280;6861;46.170;7.222;2023-05-14T06:45:16;95742.63;;;17.24;57.01
13581;BME280;6861;46.170;7.222;2023-05-14T06:47:44;95737.41;;;17.53;56.25
13581;BME280;6861;46.170;7.222;2023-05-14T06:50:14;95737.72;;;17.69;55.70
13581;BME280;6861;46.170;7.222;2023-05-14T06:52:42;95735.06;;;17.78;55.22
13581;BME280;6861;46.170;7.222;2023-05-14T06:55:10;95739.56;;;17.86;54.54
13581;BME280;6861;46.170;7.222;2023-05-14T06:57:39;95733.94;;;17.87;54.34
13581;BME280;6861;46.170;7.222;2023-05-14T07:00:08;95736.47;;;17.84;53.94
13581;BME280;6861;46.170;7.222;2023-05-14T07:02:36;95739.75;;;17.72;54.21
13581;BME280;6861;46.170;7.222;2023-05-14T07:05:05;95731.66;;;17.68;54.13
13581;BME280;6861;46.170;7.222;2023-05-14T07:07:35;95737.59;;;17.65;54.39
13581;BME280;6861;46.170;7.222;2023-05-14T07:10:04;95731.50;;;17.65;53.89
13581;BME280;6861;46.170;7.222;2023-05-14T07:12:33;95738.03;;;17.59;54.27
13581;BME280;6861;46.170;7.222;2023-05-14T07:15:02;95724.34;;;17.57;54.40
13581;BME280;6861;46.170;7.222;2023-05-14T07:17:30;95738.34;;;17.57;54.81
13581;BME280;6861;46.170;7.222;2023-05-14T07:19:59;95730.09;;;17.59;54.42
13581;BME280;6861;46.170;7.222;2023-05-14T07:22:27;95731.19;;;17.58;54.01
13581;BME280;6861;46.170;7.222;2023-05-14T07:24:56;95728.72;;;17.44;54.62
13581;BME280;6861;46.170;7.222;2023-05-14T07:27:24;95728.88;;;17.39;55.13
13581;BME280;6861;46.170;7.222;2023-05-14T07:29:53;95724.53;;;17.43;54.84
13581;BME280;6861;46.170;7.222;2023-05-14T07:32:21;95723.59;;;17.39;54.72
13581;BME280;6861;46.170;7.222;2023-05-14T07:34:50;95720.53;;;17.20;55.39
13581;BME280;6861;46.170;7.222;2023-05-14T07:37:19;95718.97;;;17.01;55.53
13581;BME280;6861;46.170;7.222;2023-05-14T07:39:49;95711.19;;;16.96;55.93
13581;BME280;6861;46.170;7.222;2023-05-14T07:42:19;95718.34;;;16.96;55.40
13581;BME280;6861;46.170;7.222;2023-05-14T07:45:01;95721.31;;;16.94;56.17
13581;BME280;6861;46.170;7.222;2023-05-14T07:47:29;95718.34;;;17.04;55.56
13581;BME280;6861;46.170;7.222;2023-05-14T07:49:58;95712.13;;;17.18;55.87
13581;BME280;6861;46.170;7.222;2023-05-14T07:52:26;95701.06;;;17.33;55.47
13581;BME280;6861;46.170;7.222;2023-05-14T07:54:55;95707.06;;;17.59;55.04
13581;BME280;6861;46.170;7.222;2023-05-14T07:57:24;95701.41;;;17.87;54.73
13581;BME280;6861;46.170;7.222;2023-05-14T07:59:53;95707.69;;;18.12;53.99
13581;BME280;6861;46.170;7.222;2023-05-14T08:02:21;95700.19;;;18.43;53.60
13581;BME280;6861;46.170;7.222;2023-05-14T08:04:49;95704.22;;;18.49;52.87
13581;BME280;6861;46.170;7.222;2023-05-14T08:07:17;95701.38;;;18.54;53.16
13581;BME280;6861;46.170;7.222;2023-05-14T08:09:46;95694.97;;;18.55;52.74
13581;BME280;6861;46.170;7.222;2023-05-14T08:12:14;95709.66;;;18.53;53.10
13581;BME280;6861;46.170;7.222;2023-05-14T08:14:44;95699.72;;;18.41;53.11
13581;BME280;6861;46.170;7.222;2023-05-14T08:17:12;95702.53;;;18.45;53.34
13581;BME280;6861;46.170;7.222;2023-05-14T08:19:41;95701.84;;;18.56;53.24
13581;BME280;6861;46.170;7.222;2023-05-14T08:22:09;95691.66;;;18.67;52.15
13581;BME280;6861;46.170;7.222;2023-05-14T08:24:37;95693.16;;;18.77;52.21
13581;BME280;6861;46.170;7.222;2023-05-14T08:27:05;95688.09;;;19.05;51.66
13581;BME280;6861;46.170;7.222;2023-05-14T08:29:34;95688.22;;;19.41;51.27
13581;BME280;6861;46.170;7.222;2023-05-14T08:32:04;95680.81;;;19.80;50.52
13581;BME280;6861;46.170;7.222;2023-05-14T08:34:48;95684.41;;;21.13;48.76
13581;BME280;6861;46.170;7.222;2023-05-14T08:37:16;95676.31;;;22.63;46.16
13581;BME280;6861;46.170;7.222;2023-05-14T08:39:44;95680.75;;;23.94;43.61
13581;BME280;6861;46.170;7.222;2023-05-14T08:42:14;95682.53;;;25.96;40.93
13581;BME280;6861;46.170;7.222;2023-05-14T08:44:47;95681.41;;;27.28;39.10
13581;BME280;6861;46.170;7.222;2023-05-14T08:47:17;95666.44;;;29.01;36.25
13581;BME280;6861;46.170;7.222;2023-05-14T08:49:51;95661.47;;;29.66;34.65
13581;BME280;6861;46.170;7.222;2023-05-14T08:52:22;95672.94;;;30.74;33.73
13581;BME280;6861;46.170;7.222;2023-05-14T08:54:51;95668.34;;;31.92;31.34
13581;BME280;6861;46.170;7.222;2023-05-14T08:57:22;95659.97;;;32.77;30.54
13581;BME280;6861;46.170;7.222;2023-05-14T08:59:52;95661.50;;;32.54;29.98
13581;BME280;6861;46.170;7.222;2023-05-14T09:02:27;95665.50;;;31.76;29.92
13581;BME280;6861;46.170;7.222;2023-05-14T09:04:57;95659.84;;;30.72;31.43
13581;BME280;6861;46.170;7.222;2023-05-14T09:07:26;95659.31;;;29.40;32.43
13581;BME280;6861;46.170;7.222;2023-05-14T09:09:55;95652.75;;;28.00;33.03
13581;BME280;6861;46.170;7.222;2023-05-14T09:12:23;95664.34;;;26.85;34.29
13581;BME280;6861;46.170;7.222;2023-05-14T09:14:52;95663.13;;;26.13;34.68
13581;BME280;6861;46.170;7.222;2023-05-14T09:17:20;95657.31;;;25.64;35.54
13581;BME280;6861;46.170;7.222;2023-05-14T09:19:50;95656.75;;;25.44;36.24
13581;BME280;6861;46.170;7.222;2023-05-14T09:22:19;95655.66;;;24.81;36.96
13581;BME280;6861;46.170;7.222;2023-05-14T09:25:02;95648.31;;;23.73;38.25
13581;BME280;6861;46.170;7.222;2023-05-14T09:27:31;95649.13;;;22.93;39.52
13581;BME280;6861;46.170;7.222;2023-05-14T09:30:07;95658.50;;;22.32;41.45
13581;BME280;6861;46.170;7.222;2023-05-14T09:32:37;95654.47;;;21.91;42.49
13581;BME280;6861;46.170;7.222;2023-05-14T09:35:12;95652.06;;;21.70;43.44
13581;BME280;6861;46.170;7.222;2023-05-14T09:37:45;95652.41;;;21.69;43.60
13581;BME280;6861;46.170;7.222;2023-05-14T09:40:14;95645.03;;;21.78;43.33
13581;BME280;6861;46.170;7.222;2023-05-14T09:42:43;95640.31;;;21.87;43.56
13581;BME280;6861;46.170;7.222;2023-05-14T09:45:11;95645.38;;;22.23;43.07
13581;BME280;6861;46.170;7.222;2023-05-14T09:47:40;95627.91;;;24.10;40.85
13581;BME280;6861;46.170;7.222;2023-05-14T09:50:11;95631.38;;;24.67;39.39
13581;BME280;6861;46.170;7.222;2023-05-14T09:52:39;95627.22;;;25.00;38.69
13581;BME280;6861;46.170;7.222;2023-05-14T09:55:08;95625.59;;;25.66;37.64
13581;BME280;6861;46.170;7.222;2023-05-14T09:57:36;95620.88;;;26.58;36.62
13581;BME280;6861;46.170;7.222;2023-05-14T10:00:06;95624.28;;;28.10;34.48
13581;BME280;6861;46.170;7.222;2023-05-14T10:02:37;95626.47;;;28.82;32.76
13581;BME280;6861;46.170;7.222;2023-05-14T10:05:07;95622.56;;;29.01;32.48
13581;BME280;6861;46.170;7.222;2023-05-14T10:07:39;95622.34;;;29.44;31.93
13581;BME280;6861;46.170;7.222;2023-05-14T10:10:12;95619.22;;;29.49;32.25
13581;BME280;6861;46.170;7.222;2023-05-14T10:12:45;95611.59;;;29.92;31.45
13581;BME280;6861;46.170;7.222;2023-05-14T10:15:17;95600.97;;;29.67;31.63
13581;BME280;6861;46.170;7.222;2023-05-14T10:17:48;95603.59;;;29.22;32.08
13581;BME280;6861;46.170;7.222;2023-05-14T10:20:18;95593.41;;;28.67;33.10
13581;BME280;6861;46.170;7.222;2023-05-14T10:22:49;95586.66;;;27.95;33.33
13581;BME280;6861;46.170;7.222;2023-05-14T10:25:18;95595.09;;;27.48;33.75
13581;BME280;6861;46.170;7.222;2023-05-14T10:27:46;95590.44;;;27.23;34.55
13581;BME280;6861;46.170;7.222;2023-05-14T10:30:14;95584.16;;;26.76;35.06
13581;BME280;6861;46.170;7.222;2023-05-14T10:32:43;95582.84;;;26.42;35.52
13581;BME280;6861;46.170;7.222;2023-05-14T10:35:15;95586.88;;;26.14;35.39
13581;BME280;6861;46.170;7.222;2023-05-14T10:37:43;95580.66;;;25.96;35.26
13581;BME280;6861;46.170;7.222;2023-05-14T10:40:14;95587.34;;;25.69;35.83
13581;BME280;6861;46.170;7.222;2023-05-14T10:42:45;95570.63;;;25.42;36.39
13581;BME280;6861;46.170;7.222;2023-05-14T10:45:14;95568.47;;;25.17;37.02
13581;BME280;6861;46.170;7.222;2023-05-14T10:47:44;95560.59;;;24.95;37.51
13581;BME280;6861;46.170;7.222;2023-05-14T10:50:13;95558.41;;;24.70;37.58
13581;BME280;6861;46.170;7.222;2023-05-14T10:52:44;95565.44;;;24.52;37.45
13581;BME280;6861;46.170;7.222;2023-05-14T10:55:15;95559.78;;;24.27;37.83
13581;BME280;6861;46.170;7.222;2023-05-14T10:57:45;95548.03;;;24.05;37.96
13581;BME280;6861;46.170;7.222;2023-05-14T11:00:14;95555.63;;;24.03;38.05
13581;BME280;6861;46.170;7.222;2023-05-14T11:02:43;95543.19;;;24.14;37.95
13581;BME280;6861;46.170;7.222;2023-05-14T11:05:13;95546.91;;;24.36;37.61
13581;BME280;6861;46.170;7.222;2023-05-14T11:07:45;95546.91;;;24.36;37.36
13581;BME280;6861;46.170;7.222;2023-05-14T11:10:15;95546.91;;;24.36;37.78
13581;BME280;6861;46.170;7.222;2023-05-14T11:12:45;95531.84;;;24.55;37.02
13581;BME280;6861;46.170;7.222;2023-05-14T11:15:16;95526.63;;;24.65;37.09
13581;BME280;6861;46.170;7.222;2023-05-14T11:17:45;95529.78;;;24.74;36.90
13581;BME280;6861;46.170;7.222;2023-05-14T11:20:15;95525.16;;;24.71;36.40
13581;BME280;6861;46.170;7.222;2023-05-14T11:22:45;95523.50;;;24.60;36.89
13581;BME280;6861;46.170;7.222;2023-05-14T11:25:15;95523.44;;;24.52;36.91
13581;BME280;6861;46.170;7.222;2023-05-14T11:27:45;95510.25;;;24.37;37.04
13581;BME280;6861;46.170;7.222;2023-05-14T11:30:15;95508.53;;;24.22;37.48
13581;BME280;6861;46.170;7.222;2023-05-14T11:32:44;95510.19;;;24.03;37.91
13581;BME280;6861;46.170;7.222;2023-05-14T11:35:13;95505.31;;;23.82;37.69
13581;BME280;6861;46.170;7.222;2023-05-14T11:37:42;95509.28;;;23.66;37.80
13581;BME280;6861;46.170;7.222;2023-05-14T11:40:15;95496.59;;;23.59;37.66
13581;BME280;6861;46.170;7.222;2023-05-14T11:42:43;95485.53;;;23.61;38.08
13581;BME280;6861;46.170;7.222;2023-05-14T11:45:12;95485.84;;;23.56;38.02
13581;BME280;6861;46.170;7.222;2023-05-14T11:47:41;95483.75;;;23.45;38.25
13581;BME280;6861;46.170;7.222;2023-05-14T11:50:09;95479.34;;;23.30;38.56
13581;BME280;6861;46.170;7.222;2023-05-14T11:52:38;95472.66;;;23.17;38.54
13581;BME280;6861;46.170;7.222;2023-05-14T11:55:10;95468.03;;;23.14;38.76
13581;BME280;6861;46.170;7.222;2023-05-14T11:57:41;95466.50;;;23.13;38.86
13581;BME280;6861;46.170;7.222;2023-05-14T12:00:10;95462.69;;;23.14;38.09
13581;BME280;6861;46.170;7.222;2023-05-14T12:02:42;95459.19;;;23.10;37.69
13581;BME280;6861;46.170;7.222;2023-05-14T12:05:12;95454.28;;;23.12;38.21
13581;BME280;6861;46.170;7.222;2023-05-14T12:07:43;95444.38;;;23.12;37.90
13581;BME280;6861;46.170;7.222;2023-05-14T12:10:11;95445.09;;;23.09;37.75
13581;BME280;6861;46.170;7.222;2023-05-14T12:12:44;95429.13;;;23.13;37.64
13581;BME280;6861;46.170;7.222;2023-05-14T12:15:14;95435.28;;;23.17;37.72
13581;BME280;6861;46.170;7.222;2023-05-14T12:17:48;95428.00;;;23.14;37.10
13581;BME280;6861;46.170;7.222;2023-05-14T12:20:18;95424.63;;;23.17;36.83
13581;BME280;6861;46.170;7.222;2023-05-14T12:22:48;95439.41;;;23.11;36.96
13581;BME280;6861;46.170;7.222;2023-05-14T12:25:17;95435.91;;;23.07;37.46
13581;BME280;6861;46.170;7.222;2023-05-14T12:27:47;95427.19;;;23.10;37.09
13581;BME280;6861;46.170;7.222;2023-05-14T12:30:17;95421.94;;;23.17;37.19
13581;BME280;6861;46.170;7.222;2023-05-14T12:32:47;95414.63;;;23.37;37.15
13581;BME280;6861;46.170;7.222;2023-05-14T12:35:20;95427.72;;;23.49;36.97
13581;BME280;6861;46.170;7.222;2023-05-14T12:37:49;95429.59;;;23.71;36.59
13581;BME280;6861;46.170;7.222;2023-05-14T12:40:17;95430.19;;;23.88;36.13
13581;BME280;6861;46.170;7.222;2023-05-14T12:42:47;95432.50;;;23.89;35.80
13581;BME280;6861;46.170;7.222;2023-05-14T12:45:15;95440.75;;;23.77;35.51
13581;BME280;6861;46.170;7.222;2023-05-14T12:47:43;95442.75;;;23.57;36.09
13581;BME280;6861;46.170;7.222;2023-05-14T12:50:12;95451.53;;;23.31;35.76
13581;BME280;6861;46.170;7.222;2023-05-14T12:52:40;95440.28;;;22.96;36.89
13581;BME280;6861;46.170;7.222;2023-05-14T12:55:08;95438.53;;;22.61;37.32
13581;BME280;6861;46.170;7.222;2023-05-14T12:57:37;95452.06;;;22.30;37.69
13581;BME280;6861;46.170;7.222;2023-05-14T13:00:08;95449.41;;;22.10;38.33
13581;BME280;6861;46.170;7.222;2023-05-14T13:02:40;95454.59;;;21.87;39.00
13581;BME280;6861;46.170;7.222;2023-05-14T13:05:10;95452.25;;;21.67;39.09
13581;BME280;6861;46.170;7.222;2023-05-14T13:07:38;95453.50;;;21.53;39.27
13581;BME280;6861;46.170;7.222;2023-05-14T13:10:07;95443.56;;;21.50;39.87
13581;BME280;6861;46.170;7.222;2023-05-14T13:12:36;95456.19;;;21.53;40.11
13581;BME280;6861;46.170;7.222;2023-05-14T13:15:07;95454.53;;;21.65;39.88
13581;BME280;6861;46.170;7.222;2023-05-14T13:17:35;95451.28;;;21.75;39.33
13581;BME280;6861;46.170;7.222;2023-05-14T13:20:04;95461.13;;;21.90;38.89
13581;BME280;6861;46.170;7.222;2023-05-14T13:22:33;95450.50;;;22.09;38.79